sensor_id;sensor_type;location;lat;lon;timestamp;pressure;altitude;pressure_sealevel;temperature;humidity
26865;BME280;40618;51.166;10.322;2023-07-13T00:01:51;97270.53;;;19.95;47.96
26865;BME280;40618;51.166;10.322;2023-07-13T00:04:18;97266.03;;;19.98;48.34
26865;BME280;40618;51.166;10.322;2023-07-13T00:06:46;97266.97;;;19.97;47.92
26865;BME280;40618;51.166;10.322;2023-07-13T00:09:13;97262.75;;;19.94;47.76
26865;BME280;40618;51.166;10.322;2023-07-13T00:11:43;97266.84;;;19.98;48.13
26865;BME280;40618;51.166;10.322;2023-07-13T00:14:10;97262.56;;;19.97;48.01
26865;BME280;40618;51.166;10.322;2023-07-13T00:16:38;97264.22;;;19.98;48.13
26865;BME280;40618;51.166;10.322;2023-07-13T00:19:09;97269.34;;;20.00;48.03
26865;BME280;40618;51.166;10.322;2023-07-13T00:21:36;97261.00;;;19.94;47.82
26865;BME280;40618;51.166;10.322;2023-07-13T00:24:03;97266.06;;;19.85;47.57
26865;BME280;40618;51.166;10.322;2023-07-13T00:26:29;97272.53;;;19.79;47.60
26865;BME280;40618;51.166;10.322;2023-07-13T00:28:54;97268.66;;;19.72;47.62
26865;BME280;40618;51.166;10.322;2023-07-13T00:31:20;97269.31;;;19.75;47.84
26865;BME280;40618;51.166;10.322;2023-07-13T00:33:46;97265.31;;;19.83;47.78
26865;BME280;40618;51.166;10.322;2023-07-13T00:36:12;97267.72;;;19.86;47.69
26865;BME280;40618;51.166;10.322;2023-07-13T00:38:38;97275.41;;;19.89;47.60
26865;BME280;40618;51.166;10.322;2023-07-13T00:41:04;97273.50;;;19.91;47.62
26865;BME280;40618;51.166;10.322;2023-07-13T00:43:30;97276.47;;;19.86;47.58
26865;BME280;40618;51.166;10.322;2023-07-13T00:48:24;97283.72;;;19.83;47.70
26865;BME280;40618;51.166;10.322;2023-07-13T00:50:56;97286.72;;;19.76;47.79
26865;BME280;40618;51.166;10.322;2023-07-13T00:53:25;97279.19;;;19.72;47.94
26865;BME280;40618;51.166;10.322;2023-07-13T00:55:53;97277.72;;;19.68;47.78
26865;BME280;40618;51.166;10.322;2023-07-13T00:58:22;97283.72;;;19.57;47.97
26865;BME280;40618;51.166;10.322;2023-07-13T01:00:50;97282.13;;;19.54;47.91
26865;BME280;40618;51.166;10.322;2023-07-13T01:03:16;97288.25;;;19.55;47.98
26865;BME280;40618;51.166;10.322;2023-07-13T01:05:43;97282.88;;;19.56;48.14
26865;BME280;40618;51.166;10.322;2023-07-13T01:08:13;97282.78;;;19.58;48.03
26865;BME280;40618;51.166;10.322;2023-07-13T01:10:39;97277.53;;;19.58;48.05
26865;BME280;40618;51.166;10.322;2023-07-13T01:13:07;97281.53;;;19.51;48.34
26865;BME280;40618;51.166;10.322;2023-07-13T01:15:45;97281.81;;;19.46;48.45
26865;BME280;40618;51.166;10.322;2023-07-13T01:18:16;97287.81;;;19.35;48.54
26865;BME280;40618;51.166;10.322;2023-07-13T01:20:55;97281.53;;;19.25;48.74
26865;BME280;40618;51.166;10.322;2023-07-13T01:23:23;97275.03;;;19.18;49.07
26865;BME280;40618;51.166;10.322;2023-07-13T01:25:51;97278.81;;;19.14;48.99
26865;BME280;40618;51.166;10.322;2023-07-13T01:28:17;97280.13;;;19.06;48.83
26865;BME280;40618;51.166;10.322;2023-07-13T01:30:44;97279.59;;;19.01;48.91
26865;BME280;40618;51.166;10.322;2023-07-13T01:33:13;97281.81;;;18.94;49.04
26865;BME280;40618;51.166;10.322;2023-07-13T01:35:40;97282.97;;;18.90;49.01
26865;BME280;40618;51.166;10.322;2023-07-13T01:38:06;97277.78;;;18.89;49.31
26865;BME280;40618;51.166;10.322;2023-07-13T01:40:34;97275.13;;;18.76;49.24
26865;BME280;40618;51.166;10.322;2023-07-13T01:43:00;97271.97;;;18.71;49.14
26865;BME280;40618;51.166;10.322;2023-07-13T01:45:26;97279.94;;;18.69;49.37
26865;BME280;40618;51.166;10.322;2023-07-13T01:47:51;97263.56;;;18.66;49.46
26865;BME280;40618;51.166;10.322;2023-07-13T01:50:17;97273.69;;;18.57;49.50
26865;BME280;40618;51.166;10.322;2023-07-13T01:52:43;97275.06;;;18.50;49.68
26865;BME280;40618;51.166;10.322;2023-07-13T01:55:08;97272.84;;;18.44;49.75
26865;BME280;40618;51.166;10.322;2023-07-13T01:57:34;97276.06;;;18.35;49.61
26865;BME280;40618;51.166;10.322;2023-07-13T02:00:03;97280.03;;;18.27;49.97
26865;BME280;40618;51.166;10.322;2023-07-13T02:02:31;97276.66;;;18.25;50.05
26865;BME280;40618;51.166;10.322;2023-07-13T02:04:56;97282.28;;;18.19;50.36
26865;BME280;40618;51.166;10.322;2023-07-13T02:07:22;97277.22;;;18.16;50.42
26865;BME280;40618;51.166;10.322;2023-07-13T02:09:47;97283.31;;;18.17;50.18
26865;BME280;40618;51.166;10.322;2023-07-13T02:12:13;97280.88;;;18.14;50.26
26865;BME280;40618;51.166;10.322;2023-07-13T02:14:39;97275.75;;;18.12;50.44
26865;BME280;40618;51.166;10.322;2023-07-13T02:17:05;97289.25;;;18.06;50.58
26865;BME280;40618;51.166;10.322;2023-07-13T02:19:31;97284.94;;;18.05;50.89
26865;BME280;40618;51.166;10.322;2023-07-13T02:21:57;97275.50;;;18.02;50.54
26865;BME280;40618;51.166;10.322;2023-07-13T02:24:23;97274.09;;;17.97;50.85
26865;BME280;40618;51.166;10.322;2023-07-13T02:26:49;97276.16;;;17.91;50.61
26865;BME280;40618;51.166;10.322;2023-07-13T02:29:15;97269.41;;;17.87;50.73
26865;BME280;40618;51.166;10.322;2023-07-13T02:31:40;97280.75;;;17.88;50.91
26865;BME280;40618;51.166;10.322;2023-07-13T02:34:06;97279.25;;;17.84;50.85
26865;BME280;40618;51.166;10.322;2023-07-13T02:36:32;97278.50;;;17.82;51.13
26865;BME280;40618;51.166;10.322;2023-07-13T02:39:00;97274.19;;;17.81;50.92
26865;BME280;40618;51.166;10.322;2023-07-13T02:41:28;97275.69;;;17.70;51.05
26865;BME280;40618;51.166;10.322;2023-07-13T02:43:54;97272.72;;;17.62;51.11
26865;BME280;40618;51.166;10.322;2023-07-13T02:46:28;97282.63;;;17.57;51.27
26865;BME280;40618;51.166;10.322;2023-07-13T02:48:57;97277.50;;;17.55;51.25
26865;BME280;40618;51.166;10.322;2023-07-13T02:51:23;97271.59;;;17.52;51.37
26865;BME280;40618;51.166;10.322;2023-07-13T02:53:48;97280.84;;;17.43;51.76
26865;BME280;40618;51.166;10.322;2023-07-13T02:56:14;97279.25;;;17.40;51.87
26865;BME280;40618;51.166;10.322;2023-07-13T02:58:39;97291.59;;;17.38;51.88
26865;BME280;40618;51.166;10.322;2023-07-13T03:01:10;97292.25;;;17.42;51.82
26865;BME280;40618;51.166;10.322;2023-07-13T03:03:37;97292.44;;;17.39;51.71
26865;BME280;40618;51.166;10.322;2023-07-13T03:06:04;97290.47;;;17.28;51.70
26865;BME280;40618;51.166;10.322;2023-07-13T03:08:31;97299.78;;;17.18;51.86
26865;BME280;40618;51.166;10.322;2023-07-13T03:11:19;97302.69;;;17.13;52.28
26865;BME280;40618;51.166;10.322;2023-07-13T03:13:45;97307.25;;;17.09;52.07
26865;BME280;40618;51.166;10.322;2023-07-13T03:16:11;97304.06;;;17.04;52.13
26865;BME280;40618;51.166;10.322;2023-07-13T03:18:38;97313.59;;;17.05;52.26
26865;BME280;40618;51.166;10.322;2023-07-13T03:21:04;97303.66;;;16.96;52.64
26865;BME280;40618;51.166;10.322;2023-07-13T03:23:31;97307.13;;;16.97;52.55
26865;BME280;40618;51.166;10.322;2023-07-13T03:26:18;97309.75;;;16.97;52.50
26865;BME280;40618;51.166;10.322;2023-07-13T03:28:45;97304.88;;;16.90;53.04
26865;BME280;40618;51.166;10.322;2023-07-13T03:31:16;97315.41;;;16.89;52.55
26865;BME280;40618;51.166;10.322;2023-07-13T03:33:44;97306.72;;;16.88;52.61
26865;BME280;40618;51.166;10.322;2023-07-13T03:36:17;97315.47;;;16.87;52.85
26865;BME280;40618;51.166;10.322;2023-07-13T03:38:52;97319.00;;;16.86;52.97
26865;BME280;40618;51.166;10.322;2023-07-13T03:41:20;97335.72;;;16.84;53.05
26865;BME280;40618;51.166;10.322;2023-07-13T03:43:46;97326.38;;;16.80;52.94
26865;BME280;40618;51.166;10.322;2023-07-13T03:46:13;97325.53;;;16.79;52.89
26865;BME280;40618;51.166;10.322;2023-07-13T03:48:40;97332.28;;;16.83;53.03
26865;BME280;40618;51.166;10.322;2023-07-13T03:51:08;97339.34;;;16.81;53.01
26865;BME280;40618;51.166;10.322;2023-07-13T03:53:38;97346.06;;;16.71;53.13
26865;BME280;40618;51.166;10.322;2023-07-13T03:56:05;97345.28;;;16.69;53.32
26865;BME280;40618;51.166;10.322;2023-07-13T03:58:36;97337.72;;;16.64;53.76
26865;BME280;40618;51.166;10.322;2023-07-13T04:01:05;97340.59;;;16.60;53.55
26865;BME280;40618;51.166;10.322;2023-07-13T04:03:32;97349.44;;;16.57;53.75
26865;BME280;40618;51.166;10.322;2023-07-13T04:06:04;97343.34;;;16.56;53.37
26865;BME280;40618;51.166;10.322;2023-07-13T04:08:33;97350.03;;;16.62;53.60
26865;BME280;40618;51.166;10.322;2023-07-13T04:11:01;97347.25;;;16.65;53.64
26865;BME280;40618;51.166;10.322;2023-07-13T04:13:28;97345.47;;;16.66;53.79
26865;BME280;40618;51.166;10.322;2023-07-13T04:15:54;97352.19;;;16.70;54.02
26865;BME280;40618;51.166;10.322;2023-07-13T04:18:20;97351.97;;;16.74;53.69
26865;BME280;40618;51.166;10.322;2023-07-13T04:20:47;97349.34;;;16.74;54.21
26865;BME280;40618;51.166;10.322;2023-07-13T04:23:14;97344.75;;;16.78;53.89
26865;BME280;40618;51.166;10.322;2023-07-13T04:25:48;97350.75;;;16.80;54.13
26865;BME280;40618;51.166;10.322;2023-07-13T04:28:19;97345.44;;;16.82;53.85
26865;BME280;40618;51.166;10.322;2023-07-13T04:30:46;97341.91;;;16.83;54.05
26865;BME280;40618;51.166;10.322;2023-07-13T04:33:12;97352.41;;;16.81;54.10
26865;BME280;40618;51.166;10.322;2023-07-13T04:35:38;97341.97;;;16.81;54.21
26865;BME280;40618;51.166;10.322;2023-07-13T04:38:04;97335.91;;;16.81;54.06
26865;BME280;40618;51.166;10.322;2023-07-13T04:40:30;97340.22;;;16.82;54.05
26865;BME280;40618;51.166;10.322;2023-07-13T04:42:56;97354.03;;;16.84;54.37
26865;BME280;40618;51.166;10.322;2023-07-13T04:45:22;97351.50;;;16.82;54.25
26865;BME280;40618;51.166;10.322;2023-07-13T04:47:49;97355.91;;;16.82;54.78
26865;BME280;40618;51.166;10.322;2023-07-13T04:50:15;97355.91;;;16.82;54.78
26865;BME280;40618;51.166;10.322;2023-07-13T04:52:45;97354.13;;;16.82;54.98
26865;BME280;40618;51.166;10.322;2023-07-13T04:55:11;97351.41;;;16.84;54.63
26865;BME280;40618;51.166;10.322;2023-07-13T04:57:36;97355.22;;;16.78;54.91
26865;BME280;40618;51.166;10.322;2023-07-13T05:00:03;97352.69;;;16.77;55.13
26865;BME280;40618;51.166;10.322;2023-07-13T05:02:33;97354.47;;;16.76;55.30
26865;BME280;40618;51.166;10.322;2023-07-13T05:05:00;97357.09;;;16.76;55.07
26865;BME280;40618;51.166;10.322;2023-07-13T05:07:28;97358.69;;;16.79;54.84
26865;BME280;40618;51.166;10.322;2023-07-13T05:09:54;97363.66;;;16.83;54.98
26865;BME280;40618;51.166;10.322;2023-07-13T05:12:19;97357.31;;;16.87;54.96
26865;BME280;40618;51.166;10.322;2023-07-13T05:14:45;97360.75;;;16.88;55.40
26865;BME280;40618;51.166;10.322;2023-07-13T05:17:11;97357.84;;;16.78;55.12
26865;BME280;40618;51.166;10.322;2023-07-13T05:19:36;97366.03;;;16.72;55.43
26865;BME280;40618;51.166;10.322;2023-07-13T05:22:02;97367.88;;;16.70;55.75
26865;BME280;40618;51.166;10.322;2023-07-13T05:24:29;97356.69;;;16.68;55.55
26865;BME280;40618;51.166;10.322;2023-07-13T05:26:55;97356.41;;;16.72;56.04
26865;BME280;40618;51.166;10.322;2023-07-13T05:29:21;97362.41;;;16.74;55.79
26865;BME280;40618;51.166;10.322;2023-07-13T05:31:47;97358.84;;;16.75;55.69
26865;BME280;40618;51.166;10.322;2023-07-13T05:34:14;97363.16;;;16.77;55.79
26865;BME280;40618;51.166;10.322;2023-07-13T05:36:40;97364.00;;;16.77;55.80
26865;BME280;40618;51.166;10.322;2023-07-13T05:39:06;97362.47;;;16.73;56.15
26865;BME280;40618;51.166;10.322;2023-07-13T05:41:32;97365.94;;;16.73;56.33
26865;BME280;40618;51.166;10.322;2023-07-13T05:43:58;97361.47;;;16.75;56.35
26865;BME280;40618;51.166;10.322;2023-07-13T05:46:24;97356.56;;;16.85;56.12
26865;BME280;40618;51.166;10.322;2023-07-13T05:48:50;97365.31;;;17.00;56.54
26865;BME280;40618;51.166;10.322;2023-07-13T05:51:16;97367.31;;;17.11;56.10
26865;BME280;40618;51.166;10.322;2023-07-13T05:53:42;97363.44;;;17.18;56.20
26865;BME280;40618;51.166;10.322;2023-07-13T05:56:07;97367.28;;;17.27;56.19
26865;BME280;40618;51.166;10.322;2023-07-13T05:58:33;97367.66;;;17.35;55.76
26865;BME280;40618;51.166;10.322;2023-07-13T06:01:10;97379.28;;;17.46;55.90
26865;BME280;40618;51.166;10.322;2023-07-13T06:03:38;97384.06;;;17.53;56.02
26865;BME280;40618;51.166;10.322;2023-07-13T06:06:05;97383.13;;;17.54;55.41
26865;BME280;40618;51.166;10.322;2023-07-13T06:08:32;97385.47;;;17.59;55.86
26865;BME280;40618;51.166;10.322;2023-07-13T06:11:12;97380.16;;;17.61;55.48
26865;BME280;40618;51.166;10.322;2023-07-13T06:13:40;97383.50;;;17.63;55.64
26865;BME280;40618;51.166;10.322;2023-07-13T06:16:07;97380.53;;;17.69;55.64
26865;BME280;40618;51.166;10.322;2023-07-13T06:18:35;97383.59;;;17.75;55.58
26865;BME280;40618;51.166;10.322;2023-07-13T06:21:09;97383.44;;;17.79;55.35
26865;BME280;40618;51.166;10.322;2023-07-13T06:23:37;97388.00;;;17.75;55.38
26865;BME280;40618;51.166;10.322;2023-07-13T06:26:04;97391.84;;;17.69;54.91
26865;BME280;40618;51.166;10.322;2023-07-13T06:28:30;97394.38;;;17.56;55.19
26865;BME280;40618;51.166;10.322;2023-07-13T06:30:58;97399.41;;;17.59;55.19
26865;BME280;40618;51.166;10.322;2023-07-13T06:33:25;97395.69;;;17.64;54.95
26865;BME280;40618;51.166;10.322;2023-07-13T06:35:51;97393.06;;;17.78;55.33
26865;BME280;40618;51.166;10.322;2023-07-13T06:38:17;97397.53;;;17.90;55.19
26865;BME280;40618;51.166;10.322;2023-07-13T06:40:42;97402.78;;;17.90;54.44
26865;BME280;40618;51.166;10.322;2023-07-13T06:43:08;97396.09;;;18.01;54.46
26865;BME280;40618;51.166;10.322;2023-07-13T06:45:43;97406.47;;;18.02;54.11
26865;BME280;40618;51.166;10.322;2023-07-13T06:48:15;97397.50;;;18.06;54.04
26865;BME280;40618;51.166;10.322;2023-07-13T06:50:42;97401.91;;;18.06;53.93
26865;BME280;40618;51.166;10.322;2023-07-13T06:53:09;97401.81;;;18.07;53.90
26865;BME280;40618;51.166;10.322;2023-07-13T06:55:35;97416.66;;;18.07;53.66
26865;BME280;40618;51.166;10.322;2023-07-13T06:58:01;97408.91;;;18.05;53.68
26865;BME280;40618;51.166;10.322;2023-07-13T07:00:26;97404.44;;;18.07;53.58
26865;BME280;40618;51.166;10.322;2023-07-13T07:02:52;97409.88;;;18.04;53.41
26865;BME280;40618;51.166;10.322;2023-07-13T07:05:18;97406.94;;;18.09;53.12
26865;BME280;40618;51.166;10.322;2023-07-13T07:07:46;97410.03;;;18.16;53.01
26865;BME280;40618;51.166;10.322;2023-07-13T07:10:15;97411.81;;;18.15;53.34
26865;BME280;40618;51.166;10.322;2023-07-13T07:12:41;97410.78;;;18.18;52.95
26865;BME280;40618;51.166;10.322;2023-07-13T07:15:07;97416.00;;;18.18;52.73
26865;BME280;40618;51.166;10.322;2023-07-13T07:17:32;97410.31;;;18.11;52.52
26865;BME280;40618;51.166;10.322;2023-07-13T07:19:58;97410.78;;;18.18;53.08
26865;BME280;40618;51.166;10.322;2023-07-13T07:22:24;97410.88;;;18.31;52.88
26865;BME280;40618;51.166;10.322;2023-07-13T07:24:53;97416.38;;;18.40;52.86
26865;BME280;40618;51.166;10.322;2023-07-13T07:27:19;97410.75;;;18.47;52.52
26865;BME280;40618;51.166;10.322;2023-07-13T07:29:45;97407.84;;;18.51;52.74
26865;BME280;40618;51.166;10.322;2023-07-13T07:32:11;97414.41;;;18.44;52.37
26865;BME280;40618;51.166;10.322;2023-07-13T07:34:36;97412.53;;;18.46;52.56
26865;BME280;40618;51.166;10.322;2023-07-13T07:37:02;97409.13;;;18.58;52.63
26865;BME280;40618;51.166;10.322;2023-07-13T07:39:29;97405.50;;;18.74;52.61
26865;BME280;40618;51.166;10.322;2023-07-13T07:41:54;97400.09;;;18.77;52.29
26865;BME280;40618;51.166;10.322;2023-07-13T07:44:20;97412.19;;;18.80;52.35
26865;BME280;40618;51.166;10.322;2023-07-13T07:46:46;97403.06;;;18.85;52.19
26865;BME280;40618;51.166;10.322;2023-07-13T07:49:11;97413.56;;;18.85;51.91
26865;BME280;40618;51.166;10.322;2023-07-13T07:51:37;97415.94;;;18.75;51.90
26865;BME280;40618;51.166;10.322;2023-07-13T07:54:04;97416.50;;;18.66;51.88
26865;BME280;40618;51.166;10.322;2023-07-13T07:56:30;97419.75;;;18.70;51.85
26865;BME280;40618;51.166;10.322;2023-07-13T07:58:57;97410.38;;;18.80;51.82
26865;BME280;40618;51.166;10.322;2023-07-13T08:01:23;97411.59;;;18.89;51.93
26865;BME280;40618;51.166;10.322;2023-07-13T08:03:48;97405.84;;;18.97;51.65
26865;BME280;40618;51.166;10.322;2023-07-13T08:06:14;97418.16;;;18.96;51.29
26865;BME280;40618;51.166;10.322;2023-07-13T08:08:40;97421.28;;;19.01;51.65
26865;BME280;40618;51.166;10.322;2023-07-13T08:11:08;97414.41;;;19.13;51.46
26865;BME280;40618;51.166;10.322;2023-07-13T08:13:34;97416.94;;;19.15;51.09
26865;BME280;40618;51.166;10.322;2023-07-13T08:16:00;97413.59;;;19.25;51.28
26865;BME280;40618;51.166;10.322;2023-07-13T08:18:27;97420.13;;;19.33;50.84
26865;BME280;40618;51.166;10.322;2023-07-13T08:20:55;97418.69;;;19.41;50.66
26865;BME280;40618;51.166;10.322;2023-07-13T08:23:25;97425.31;;;19.60;50.77
26865;BME280;40618;51.166;10.322;2023-07-13T08:25:52;97422.97;;;19.83;50.34
26865;BME280;40618;51.166;10.322;2023-07-13T08:28:19;97421.06;;;19.98;50.18
26865;BME280;40618;51.166;10.322;2023-07-13T08:30:48;97420.22;;;20.10;49.98
26865;BME280;40618;51.166;10.322;2023-07-13T08:33:21;97424.91;;;20.31;49.73
26865;BME280;40618;51.166;10.322;2023-07-13T08:35:51;97421.19;;;20.46;49.49
26865;BME280;40618;51.166;10.322;2023-07-13T08:38:17;97425.50;;;20.60;49.53
26865;BME280;40618;51.166;10.322;2023-07-13T08:40:45;97422.25;;;20.56;49.13
26865;BME280;40618;51.166;10.322;2023-07-13T08:43:19;97419.38;;;20.59;49.29
26865;BME280;40618;51.166;10.322;2023-07-13T08:45:53;97422.00;;;20.59;48.68
26865;BME280;40618;51.166;10.322;2023-07-13T08:48:32;97430.47;;;20.52;48.52
26865;BME280;40618;51.166;10.322;2023-07-13T08:51:39;97417.09;;;20.55;48.78
26865;BME280;40618;51.166;10.322;2023-07-13T08:54:35;97424.63;;;20.59;48.37
26865;BME280;40618;51.166;10.322;2023-07-13T08:57:12;97426.75;;;20.54;48.08
26865;BME280;40618;51.166;10.322;2023-07-13T08:59:40;97411.94;;;20.53;48.26
26865;BME280;40618;51.166;10.322;2023-07-13T09:03:00;97413.50;;;20.69;48.30
26865;BME280;40618;51.166;10.322;2023-07-13T09:05:14;97415.63;;;20.88;48.21
26865;BME280;40618;51.166;10.322;2023-07-13T09:08:04;97409.19;;;20.92;47.72
26865;BME280;40618;51.166;10.322;2023-07-13T09:10:46;97422.13;;;20.95;47.68
26865;BME280;40618;51.166;10.322;2023-07-13T09:15:52;97425.66;;;21.07;47.26
26865;BME280;40618;51.166;10.322;2023-07-13T09:19:07;97424.88;;;20.93;47.02
26865;BME280;40618;51.166;10.322;2023-07-13T09:21:41;97415.09;;;20.95;47.15
26865;BME280;40618;51.166;10.322;2023-07-13T09:27:22;97422.41;;;21.03;47.06
26865;BME280;40618;51.166;10.322;2023-07-13T09:30:02;97425.91;;;21.04;47.05
26865;BME280;40618;51.166;10.322;2023-07-13T09:32:52;97424.66;;;21.32;47.02
26865;BME280;40618;51.166;10.322;2023-07-13T09:35:22;97430.78;;;21.57;46.80
26865;BME280;40618;51.166;10.322;2023-07-13T09:38:11;97427.97;;;21.47;46.38
26865;BME280;40618;51.166;10.322;2023-07-13T09:43:35;97431.75;;;21.67;46.26
26865;BME280;40618;51.166;10.322;2023-07-13T09:46:01;97433.09;;;21.73;46.13
26865;BME280;40618;51.166;10.322;2023-07-13T09:48:35;97427.13;;;21.71;46.12
26865;BME280;40618;51.166;10.322;2023-07-13T09:51:12;97436.16;;;21.55;45.89
26865;BME280;40618;51.166;10.322;2023-07-13T09:53:41;97437.63;;;21.35;46.08
26865;BME280;40618;51.166;10.322;2023-07-13T09:56:26;97439.06;;;21.04;45.97
26865;BME280;40618;51.166;10.322;2023-07-13T09:58:55;97432.66;;;20.95;46.25
26865;BME280;40618;51.166;10.322;2023-07-13T10:01:36;97435.28;;;20.95;46.38
26865;BME280;40618;51.166;10.322;2023-07-13T10:04:10;97431.03;;;21.05;46.26
26865;BME280;40618;51.166;10.322;2023-07-13T10:06:38;97445.66;;;21.09;46.57
26865;BME280;40618;51.166;10.322;2023-07-13T10:09:08;97459.13;;;21.05;46.07
26865;BME280;40618;51.166;10.322;2023-07-13T10:11:36;97444.41;;;21.02;46.16
26865;BME280;40618;51.166;10.322;2023-07-13T10:14:15;97437.03;;;21.07;46.31
26865;BME280;40618;51.166;10.322;2023-07-13T10:16:44;97438.81;;;21.07;46.05
26865;BME280;40618;51.166;10.322;2023-07-13T10:21:54;97452.09;;;21.05;45.90
26865;BME280;40618;51.166;10.322;2023-07-13T10:24:30;97449.31;;;20.95;45.94
26865;BME280;40618;51.166;10.322;2023-07-13T10:27:10;97446.72;;;21.07;46.42
26865;BME280;40618;51.166;10.322;2023-07-13T10:29:47;97437.41;;;21.62;46.40
26865;BME280;40618;51.166;10.322;2023-07-13T10:32:19;97439.59;;;22.03;45.58
26865;BME280;40618;51.166;10.322;2023-07-13T10:34:48;97433.97;;;22.07;45.14
26865;BME280;40618;51.166;10.322;2023-07-13T10:37:21;97435.31;;;22.13;45.23
26865;BME280;40618;51.166;10.322;2023-07-13T10:39:50;97437.59;;;22.18;44.78
26865;BME280;40618;51.166;10.322;2023-07-13T10:42:31;97443.09;;;22.14;45.11
26865;BME280;40618;51.166;10.322;2023-07-13T10:45:11;97441.19;;;22.17;44.81
26865;BME280;40618;51.166;10.322;2023-07-13T10:47:39;97446.94;;;22.22;44.93
26865;BME280;40618;51.166;10.322;2023-07-13T10:50:05;97434.59;;;22.34;44.52
26865;BME280;40618;51.166;10.322;2023-07-13T10:52:46;97459.78;;;22.49;44.17
26865;BME280;40618;51.166;10.322;2023-07-13T10:58:02;97452.34;;;22.20;44.37
26865;BME280;40618;51.166;10.322;2023-07-13T11:03:27;97445.81;;;21.90;44.40
26865;BME280;40618;51.166;10.322;2023-07-13T11:15:13;97451.50;;;22.31;44.24
26865;BME280;40618;51.166;10.322;2023-07-13T11:17:51;97441.78;;;22.43;43.83
26865;BME280;40618;51.166;10.322;2023-07-13T11:20:34;97438.69;;;22.49;44.15
26865;BME280;40618;51.166;10.322;2023-07-13T11:23:20;97435.81;;;22.41;43.80
26865;BME280;40618;51.166;10.322;2023-07-13T11:25:52;97449.44;;;22.12;43.78
26865;BME280;40618;51.166;10.322;2023-07-13T11:28:23;97447.63;;;22.01;43.65
26865;BME280;40618;51.166;10.322;2023-07-13T11:33:24;97439.09;;;21.86;43.93
26865;BME280;40618;51.166;10.322;2023-07-13T11:36:16;97427.63;;;21.98;44.17
26865;BME280;40618;51.166;10.322;2023-07-13T11:39:01;97427.66;;;22.21;43.81
26865;BME280;40618;51.166;10.322;2023-07-13T11:41:34;97433.19;;;22.41;43.82
26865;BME280;40618;51.166;10.322;2023-07-13T11:44:22;97424.53;;;22.61;44.01
26865;BME280;40618;51.166;10.322;2023-07-13T11:49:20;97414.16;;;22.81;43.21
26865;BME280;40618;51.166;10.322;2023-07-13T11:51:48;97426.78;;;22.77;43.57
26865;BME280;40618;51.166;10.322;2023-07-13T12:00:03;97427.16;;;22.61;43.24
26865;BME280;40618;51.166;10.322;2023-07-13T12:02:40;97432.41;;;22.73;42.96
26865;BME280;40618;51.166;10.322;2023-07-13T12:05:12;97429.63;;;22.74;42.90
26865;BME280;40618;51.166;10.322;2023-07-13T12:07:40;97428.34;;;22.80;42.99
26865;BME280;40618;51.166;10.322;2023-07-13T12:10:29;97446.91;;;22.78;42.33
26865;BME280;40618;51.166;10.322;2023-07-13T12:13:02;97442.25;;;22.71;42.65
26865;BME280;40618;51.166;10.322;2023-07-13T12:15:45;97439.28;;;22.64;42.14
26865;BME280;40618;51.166;10.322;2023-07-13T12:18:19;97446.00;;;22.57;42.49
26865;BME280;40618;51.166;10.322;2023-07-13T12:20:48;97445.78;;;22.48;42.19
26865;BME280;40618;51.166;10.322;2023-07-13T12:26:01;97438.63;;;22.83;42.53
26865;BME280;40618;51.166;10.322;2023-07-13T12:28:48;97429.09;;;23.14;42.36
26865;BME280;40618;51.166;10.322;2023-07-13T12:31:32;97437.25;;;23.44;42.44
26865;BME280;40618;51.166;10.322;2023-07-13T12:34:11;97433.16;;;23.51;41.75
26865;BME280;40618;51.166;10.322;2023-07-13T12:37:08;97437.78;;;23.38;40.86
26865;BME280;40618;51.166;10.322;2023-07-13T12:39:44;97453.22;;;23.21;41.25
26865;BME280;40618;51.166;10.322;2023-07-13T12:44:57;97439.53;;;23.05;41.13
26865;BME280;40618;51.166;10.322;2023-07-13T12:47:25;97446.06;;;22.89;40.77
26865;BME280;40618;51.166;10.322;2023-07-13T12:49:57;97445.59;;;22.73;40.96
26865;BME280;40618;51.166;10.322;2023-07-13T12:52:32;97449.19;;;22.72;41.25
26865;BME280;40618;51.166;10.322;2023-07-13T12:57:54;97452.47;;;22.64;41.30
26865;BME280;40618;51.166;10.322;2023-07-13T13:03:04;97449.91;;;22.85;41.63
26865;BME280;40618;51.166;10.322;2023-07-13T13:05:43;97439.88;;;23.11;41.37
26865;BME280;40618;51.166;10.322;2023-07-13T13:08:13;97451.38;;;23.22;40.97
26865;BME280;40618;51.166;10.322;2023-07-13T13:10:39;97464.31;;;23.36;40.71
26865;BME280;40618;51.166;10.322;2023-07-13T13:13:05;97449.91;;;23.29;40.59
26865;BME280;40618;51.166;10.322;2023-07-13T13:15:31;97460.63;;;23.27;40.71
26865;BME280;40618;51.166;10.322;2023-07-13T13:17:58;97449.13;;;23.17;40.58
26865;BME280;40618;51.166;10.322;2023-07-13T13:20:24;97462.31;;;23.06;40.55
26865;BME280;40618;51.166;10.322;2023-07-13T13:22:51;97462.38;;;22.94;40.70
26865;BME280;40618;51.166;10.322;2023-07-13T13:25:18;97468.03;;;22.90;40.45
26865;BME280;40618;51.166;10.322;2023-07-13T13:27:45;97458.91;;;22.82;40.73
26865;BME280;40618;51.166;10.322;2023-07-13T13:30:12;97456.50;;;22.79;40.80
26865;BME280;40618;51.166;10.322;2023-07-13T13:32:41;97456.34;;;23.04;40.73
26865;BME280;40618;51.166;10.322;2023-07-13T13:35:14;97453.44;;;23.18;40.28
26865;BME280;40618;51.166;10.322;2023-07-13T13:37:40;97459.47;;;22.97;40.36
26865;BME280;40618;51.166;10.322;2023-07-13T13:40:19;97464.66;;;22.88;40.37
26865;BME280;40618;51.166;10.322;2023-07-13T13:42:46;97476.41;;;22.84;40.46
26865;BME280;40618;51.166;10.322;2023-07-13T13:45:12;97462.53;;;22.81;40.41
26865;BME280;40618;51.166;10.322;2023-07-13T13:47:39;97464.19;;;22.94;40.85
26865;BME280;40618;51.166;10.322;2023-07-13T13:50:17;97453.91;;;23.12;40.94
26865;BME280;40618;51.166;10.322;2023-07-13T13:52:48;97462.25;;;23.40;40.99
26865;BME280;40618;51.166;10.322;2023-07-13T13:55:15;97462.50;;;23.58;40.64